sensor_id;sensor_type;location;lat;lon;timestamp;pressure;altitude;pressure_sealevel;temperature;humidity
75895;BME280;64573;50.328;15.014;2023-02-28T00:00:38;100048.03;;;-1.81;75.89
75895;BME280;64573;50.328;15.014;2023-02-28T00:03:04;100047.09;;;-1.80;76.39
75895;BME280;64573;50.328;15.014;2023-02-28T00:05:30;100046.31;;;-1.82;75.38
75895;BME280;64573;50.328;15.014;2023-02-28T00:07:56;100048.88;;;-1.80;74.96
75895;BME280;64573;50.328;15.014;2023-02-28T00:10:27;100049.00;;;-1.83;75.36
75895;BME280;64573;50.328;15.014;2023-02-28T00:12:54;100051.56;;;-1.82;74.69
75895;BME280;64573;50.328;15.014;2023-02-28T00:15:22;100047.94;;;-1.79;75.12
75895;BME280;64573;50.328;15.014;2023-02-28T00:17:49;100050.03;;;-1.86;75.35
75895;BME280;64573;50.328;15.014;2023-02-28T00:20:14;100048.88;;;-1.80;73.99
75895;BME280;64573;50.328;15.014;2023-02-28T00:22:43;100055.38;;;-1.87;75.82
75895;BME280;64573;50.328;15.014;2023-02-28T00:25:11;100054.53;;;-1.88;75.27
75895;BME280;64573;50.328;15.014;2023-02-28T00:27:37;100057.06;;;-1.86;74.92
75895;BME280;64573;50.328;15.014;2023-02-28T00:30:04;100057.75;;;-1.83;73.44
75895;BME280;64573;50.328;15.014;2023-02-28T00:32:30;100049.19;;;-1.86;74.49
75895;BME280;64573;50.328;15.014;2023-02-28T00:34:56;100056.91;;;-1.83;74.24
75895;BME280;64573;50.328;15.014;2023-02-28T00:37:21;100060.47;;;-1.84;74.57
75895;BME280;64573;50.328;15.014;2023-02-28T00:39:46;100056.81;;;-1.82;74.17
75895;BME280;64573;50.328;15.014;2023-02-28T00:42:12;100067.03;;;-1.76;73.53
75895;BME280;64573;50.328;15.014;2023-02-28T00:44:37;100059.41;;;-1.80;72.68
75895;BME280;64573;50.328;15.014;2023-02-28T00:47:03;100064.72;;;-1.82;73.00
75895;BME280;64573;50.328;15.014;2023-02-28T00:49:28;100060.25;;;-1.80;73.17
75895;BME280;64573;50.328;15.014;2023-02-28T00:51:54;100057.91;;;-1.86;72.66
75895;BME280;64573;50.328;15.014;2023-02-28T00:54:20;100060.16;;;-1.78;72.62
75895;BME280;64573;50.328;15.014;2023-02-28T00:56:46;100055.03;;;-1.81;72.26
75895;BME280;64573;50.328;15.014;2023-02-28T00:59:12;100062.03;;;-1.80;72.08
75895;BME280;64573;50.328;15.014;2023-02-28T01:01:38;100050.03;;;-1.86;72.05
75895;BME280;64573;50.328;15.014;2023-02-28T01:04:04;100055.97;;;-1.82;71.37
75895;BME280;64573;50.328;15.014;2023-02-28T01:06:30;100053.59;;;-1.87;72.30
75895;BME280;64573;50.328;15.014;2023-02-28T01:08:55;100055.38;;;-1.87;70.80
75895;BME280;64573;50.328;15.014;2023-02-28T01:11:20;100057.16;;;-1.88;71.27
75895;BME280;64573;50.328;15.014;2023-02-28T01:13:46;100054.81;;;-1.94;71.41
75895;BME280;64573;50.328;15.014;2023-02-28T01:16:12;100046.94;;;-1.94;71.19
75895;BME280;64573;50.328;15.014;2023-02-28T01:18:38;100053.44;;;-2.01;71.65
75895;BME280;64573;50.328;15.014;2023-02-28T01:21:05;100050.56;;;-1.97;71.18
75895;BME280;64573;50.328;15.014;2023-02-28T01:23:31;100048.38;;;-2.06;71.67
75895;BME280;64573;50.328;15.014;2023-02-28T01:25:56;100048.38;;;-2.06;70.52
75895;BME280;64573;50.328;15.014;2023-02-28T01:28:21;100046.91;;;-2.11;71.63
75895;BME280;64573;50.328;15.014;2023-02-28T01:30:50;100054.56;;;-2.07;71.09
75895;BME280;64573;50.328;15.014;2023-02-28T01:33:16;100046.13;;;-2.13;71.60
75895;BME280;64573;50.328;15.014;2023-02-28T01:35:41;100044.22;;;-2.10;71.07
75895;BME280;64573;50.328;15.014;2023-02-28T01:38:07;100047.91;;;-2.14;71.07
75895;BME280;64573;50.328;15.014;2023-02-28T01:40:32;100047.66;;;-2.27;71.92
75895;BME280;64573;50.328;15.014;2023-02-28T01:42:57;100055.06;;;-2.35;71.85
75895;BME280;64573;50.328;15.014;2023-02-28T01:45:28;100057.28;;;-2.44;72.39
75895;BME280;64573;50.328;15.014;2023-02-28T01:48:06;100062.91;;;-2.52;73.31
75895;BME280;64573;50.328;15.014;2023-02-28T01:50:37;100060.03;;;-2.47;72.73
75895;BME280;64573;50.328;15.014;2023-02-28T01:53:07;100063.50;;;-2.47;72.33
75895;BME280;64573;50.328;15.014;2023-02-28T01:55:34;100055.91;;;-2.34;71.60
75895;BME280;64573;50.328;15.014;2023-02-28T01:58:02;100050.88;;;-2.39;71.82
75895;BME280;64573;50.328;15.014;2023-02-28T02:00:30;100046.78;;;-2.44;72.52
75895;BME280;64573;50.328;15.014;2023-02-28T02:03:06;100048.75;;;-2.50;72.27
75895;BME280;64573;50.328;15.014;2023-02-28T02:05:32;100047.25;;;-2.55;71.97
75895;BME280;64573;50.328;15.014;2023-02-28T02:08:04;100048.13;;;-2.55;72.28
75895;BME280;64573;50.328;15.014;2023-02-28T02:10:36;100047.25;;;-2.55;72.93
75895;BME280;64573;50.328;15.014;2023-02-28T02:13:19;100049.31;;;-2.62;72.88
75895;BME280;64573;50.328;15.014;2023-02-28T02:22:21;100045.44;;;-2.72;73.21
75895;BME280;64573;50.328;15.014;2023-02-28T02:28:01;100046.13;;;-2.68;73.53
75895;BME280;64573;50.328;15.014;2023-02-28T02:36:03;100041.19;;;-2.74;73.48
75895;BME280;64573;50.328;15.014;2023-02-28T02:39:02;100040.19;;;-2.72;72.63
75895;BME280;64573;50.328;15.014;2023-02-28T02:41:50;100037.75;;;-2.77;73.00
75895;BME280;64573;50.328;15.014;2023-02-28T02:44:40;100043.09;;;-2.78;74.04
75895;BME280;64573;50.328;15.014;2023-02-28T02:47:12;100042.75;;;-2.89;73.91
75895;BME280;64573;50.328;15.014;2023-02-28T02:49:43;100039.97;;;-2.86;73.51
75895;BME280;64573;50.328;15.014;2023-02-28T02:52:12;100037.06;;;-2.99;74.24
75895;BME280;64573;50.328;15.014;2023-02-28T02:54:42;100039.38;;;-3.12;74.90
75895;BME280;64573;50.328;15.014;2023-02-28T02:57:15;100039.75;;;-3.00;74.31
75895;BME280;64573;50.328;15.014;2023-02-28T02:59:43;100034.13;;;-3.12;74.44
75895;BME280;64573;50.328;15.014;2023-02-28T03:02:13;100039.25;;;-3.09;74.75
75895;BME280;64573;50.328;15.014;2023-02-28T03:04:46;100037.81;;;-3.16;74.68
75895;BME280;64573;50.328;15.014;2023-02-28T03:07:13;100045.38;;;-3.28;75.67
75895;BME280;64573;50.328;15.014;2023-02-28T03:09:39;100045.88;;;-3.39;76.50
75895;BME280;64573;50.328;15.014;2023-02-28T03:12:09;100048.44;;;-3.19;75.61
75895;BME280;64573;50.328;15.014;2023-02-28T03:14:49;100045.28;;;-3.25;75.52
75895;BME280;64573;50.328;15.014;2023-02-28T03:31:15;100041.47;;;-3.39;75.87
75895;BME280;64573;50.328;15.014;2023-02-28T03:33:50;100038.34;;;-3.47;76.12
75895;BME280;64573;50.328;15.014;2023-02-28T03:36:22;100030.91;;;-3.37;74.95
75895;BME280;64573;50.328;15.014;2023-02-28T03:39:14;100036.56;;;-3.46;75.50
75895;BME280;64573;50.328;15.014;2023-02-28T03:42:02;100040.56;;;-3.58;76.55
75895;BME280;64573;50.328;15.014;2023-02-28T03:44:44;100039.56;;;-3.55;76.63
75895;BME280;64573;50.328;15.014;2023-02-28T03:47:13;100023.19;;;-3.40;76.12
75895;BME280;64573;50.328;15.014;2023-02-28T03:49:57;100038.13;;;-3.42;75.17
75895;BME280;64573;50.328;15.014;2023-02-28T03:52:27;100045.66;;;-3.55;76.02
75895;BME280;64573;50.328;15.014;2023-02-28T03:55:00;100040.31;;;-3.52;75.95
75895;BME280;64573;50.328;15.014;2023-02-28T03:57:53;100043.78;;;-3.51;76.36
75895;BME280;64573;50.328;15.014;2023-02-28T04:00:28;100036.56;;;-3.46;75.87
75895;BME280;64573;50.328;15.014;2023-02-28T04:02:55;100034.88;;;-3.47;75.78
75895;BME280;64573;50.328;15.014;2023-02-28T04:05:21;100034.56;;;-3.41;74.90
75895;BME280;64573;50.328;15.014;2023-02-28T04:07:46;100032.81;;;-3.41;74.45
75895;BME280;64573;50.328;15.014;2023-02-28T04:10:13;100032.28;;;-3.28;73.28
75895;BME280;64573;50.328;15.014;2023-02-28T04:12:39;100038.97;;;-3.42;73.64
75895;BME280;64573;50.328;15.014;2023-02-28T04:15:05;100040.16;;;-3.49;74.61
75895;BME280;64573;50.328;15.014;2023-02-28T04:17:31;100044.81;;;-3.55;74.46
75895;BME280;64573;50.328;15.014;2023-02-28T04:19:56;100046.59;;;-3.56;74.13
75895;BME280;64573;50.328;15.014;2023-02-28T04:22:22;100047.91;;;-3.46;72.86
75895;BME280;64573;50.328;15.014;2023-02-28T04:24:50;100036.63;;;-3.48;73.04
75895;BME280;64573;50.328;15.014;2023-02-28T04:27:16;100037.53;;;-3.49;72.90
75895;BME280;64573;50.328;15.014;2023-02-28T04:29:41;100048.44;;;-3.58;73.51
75895;BME280;64573;50.328;15.014;2023-02-28T04:32:10;100043.00;;;-3.53;72.74
75895;BME280;64573;50.328;15.014;2023-02-28T04:34:35;100043.84;;;-3.53;72.60
75895;BME280;64573;50.328;15.014;2023-02-28T04:37:01;100049.44;;;-3.61;73.06
75895;BME280;64573;50.328;15.014;2023-02-28T04:39:28;100044.19;;;-3.61;72.50
75895;BME280;64573;50.328;15.014;2023-02-28T04:41:55;100051.84;;;-3.56;71.98
75895;BME280;64573;50.328;15.014;2023-02-28T04:44:21;100051.13;;;-3.59;71.77
75895;BME280;64573;50.328;15.014;2023-02-28T04:46:47;100047.00;;;-3.65;72.03
75895;BME280;64573;50.328;15.014;2023-02-28T04:49:13;100051.91;;;-3.57;71.81
75895;BME280;64573;50.328;15.014;2023-02-28T04:51:39;100050.34;;;-3.62;72.00
75895;BME280;64573;50.328;15.014;2023-02-28T04:54:05;100049.50;;;-3.62;72.04
75895;BME280;64573;50.328;15.014;2023-02-28T04:56:30;100056.22;;;-3.56;71.48
75895;BME280;64573;50.328;15.014;2023-02-28T04:58:56;100052.75;;;-3.77;72.71
75895;BME280;64573;50.328;15.014;2023-02-28T05:01:27;100058.72;;;-3.74;73.13
75895;BME280;64573;50.328;15.014;2023-02-28T05:03:55;100052.63;;;-3.74;72.99
75895;BME280;64573;50.328;15.014;2023-02-28T05:06:22;100050.72;;;-3.71;72.24
75895;BME280;64573;50.328;15.014;2023-02-28T05:08:48;100059.91;;;-3.61;71.75
75895;BME280;64573;50.328;15.014;2023-02-28T05:11:17;100060.75;;;-3.60;71.46
75895;BME280;64573;50.328;15.014;2023-02-28T05:13:44;100059.91;;;-3.61;70.93
75895;BME280;64573;50.328;15.014;2023-02-28T05:16:09;100055.25;;;-3.74;71.66
75895;BME280;64573;50.328;15.014;2023-02-28T05:18:35;100059.00;;;-3.59;71.53
75895;BME280;64573;50.328;15.014;2023-02-28T05:21:01;100064.69;;;-3.70;71.41
75895;BME280;64573;50.328;15.014;2023-02-28T05:23:27;100064.69;;;-3.70;71.26
75895;BME280;64573;50.328;15.014;2023-02-28T05:25:53;100064.88;;;-3.75;71.63
75895;BME280;64573;50.328;15.014;2023-02-28T05:28:19;100069.91;;;-3.70;71.64
75895;BME280;64573;50.328;15.014;2023-02-28T05:30:44;100073.34;;;-3.68;70.50
75895;BME280;64573;50.328;15.014;2023-02-28T05:33:11;100068.38;;;-3.74;71.29
75895;BME280;64573;50.328;15.014;2023-02-28T05:35:38;100074.88;;;-3.84;71.99
75895;BME280;64573;50.328;15.014;2023-02-28T05:38:04;100075.81;;;-3.85;71.84
75895;BME280;64573;50.328;15.014;2023-02-28T05:40:29;100083.09;;;-3.72;70.97
75895;BME280;64573;50.328;15.014;2023-02-28T05:42:55;100086.03;;;-3.79;71.51
75895;BME280;64573;50.328;15.014;2023-02-28T05:45:20;100086.88;;;-3.79;71.58
75895;BME280;64573;50.328;15.014;2023-02-28T05:47:45;100093.44;;;-3.89;72.72
75895;BME280;64573;50.328;15.014;2023-02-28T05:50:11;100084.53;;;-3.85;71.59
75895;BME280;64573;50.328;15.014;2023-02-28T05:52:36;100098.69;;;-3.89;72.34
75895;BME280;64573;50.328;15.014;2023-02-28T05:55:02;100095.00;;;-3.85;71.87
75895;BME280;64573;50.328;15.014;2023-02-28T05:57:28;100096.88;;;-3.67;70.92
75895;BME280;64573;50.328;15.014;2023-02-28T05:59:53;100094.56;;;-3.74;71.22
75895;BME280;64573;50.328;15.014;2023-02-28T06:02:19;100086.19;;;-3.82;71.39
75895;BME280;64573;50.328;15.014;2023-02-28T06:04:45;100095.34;;;-3.72;71.63
75895;BME280;64573;50.328;15.014;2023-02-28T06:07:10;100115.19;;;-3.87;71.70
75895;BME280;64573;50.328;15.014;2023-02-28T06:09:36;100097.28;;;-3.76;70.72
75895;BME280;64573;50.328;15.014;2023-02-28T06:12:03;100110.97;;;-3.69;70.96
75895;BME280;64573;50.328;15.014;2023-02-28T06:14:31;100102.91;;;-3.44;69.36
75895;BME280;64573;50.328;15.014;2023-02-28T06:16:58;100112.47;;;-3.23;68.69
75895;BME280;64573;50.328;15.014;2023-02-28T06:19:24;100107.56;;;-3.10;67.69
75895;BME280;64573;50.328;15.014;2023-02-28T06:21:54;100104.16;;;-2.93;66.59
75895;BME280;64573;50.328;15.014;2023-02-28T06:24:21;100116.25;;;-2.89;66.29
75895;BME280;64573;50.328;15.014;2023-02-28T06:26:46;100109.06;;;-2.86;66.67
75895;BME280;64573;50.328;15.014;2023-02-28T06:29:12;100119.53;;;-2.65;65.43
75895;BME280;64573;50.328;15.014;2023-02-28T06:31:41;100123.69;;;-2.61;65.42
75895;BME280;64573;50.328;15.014;2023-02-28T06:34:06;100137.38;;;-2.53;64.52
75895;BME280;64573;50.328;15.014;2023-02-28T06:36:32;100122.31;;;-2.50;64.42
75895;BME280;64573;50.328;15.014;2023-02-28T06:38:57;100126.84;;;-2.34;62.76
75895;BME280;64573;50.328;15.014;2023-02-28T06:41:26;100134.44;;;-2.28;63.03
75895;BME280;64573;50.328;15.014;2023-02-28T06:43:52;100128.97;;;-2.24;62.33
75895;BME280;64573;50.328;15.014;2023-02-28T06:46:18;100133.34;;;-2.05;61.44
75895;BME280;64573;50.328;15.014;2023-02-28T06:48:44;100135.84;;;-2.02;62.52
75895;BME280;64573;50.328;15.014;2023-02-28T06:51:13;100145.63;;;-2.06;61.48
75895;BME280;64573;50.328;15.014;2023-02-28T06:53:39;100143.28;;;-1.93;60.87
75895;BME280;64573;50.328;15.014;2023-02-28T06:56:15;100141.78;;;-1.99;60.47
75895;BME280;64573;50.328;15.014;2023-02-28T06:58:40;100147.78;;;-1.78;59.89
75895;BME280;64573;50.328;15.014;2023-02-28T07:01:07;100148.25;;;-1.70;59.53
75895;BME280;64573;50.328;15.014;2023-02-28T07:03:35;100144.03;;;-1.72;60.42
75895;BME280;64573;50.328;15.014;2023-02-28T07:06:00;100144.19;;;-1.58;59.89
75895;BME280;64573;50.328;15.014;2023-02-28T07:08:26;100160.34;;;-1.48;59.22
75895;BME280;64573;50.328;15.014;2023-02-28T07:10:53;100149.38;;;-1.56;59.35
75895;BME280;64573;50.328;15.014;2023-02-28T07:13:19;100153.94;;;-1.43;58.37
75895;BME280;64573;50.328;15.014;2023-02-28T07:15:56;100151.59;;;-1.31;57.90
75895;BME280;64573;50.328;15.014;2023-02-28T07:18:22;100154.78;;;-1.07;59.02
75895;BME280;64573;50.328;15.014;2023-02-28T07:20:47;100166.47;;;-1.13;57.97
75895;BME280;64573;50.328;15.014;2023-02-28T07:23:12;100160.59;;;-1.01;57.10
75895;BME280;64573;50.328;15.014;2023-02-28T07:25:38;100158.78;;;-0.83;57.41
75895;BME280;64573;50.328;15.014;2023-02-28T07:28:04;100151.34;;;-0.59;56.48
75895;BME280;64573;50.328;15.014;2023-02-28T07:30:30;100158.69;;;-0.81;56.55
75895;BME280;64573;50.328;15.014;2023-02-28T07:32:55;100164.31;;;-1.05;56.70
75895;BME280;64573;50.328;15.014;2023-02-28T07:35:21;100156.06;;;-0.81;56.38
75895;BME280;64573;50.328;15.014;2023-02-28T07:37:47;100161.31;;;-0.64;56.00
75895;BME280;64573;50.328;15.014;2023-02-28T07:40:12;100157.00;;;-0.49;55.11
75895;BME280;64573;50.328;15.014;2023-02-28T07:42:39;100159.38;;;-0.45;55.21
75895;BME280;64573;50.328;15.014;2023-02-28T07:45:05;100174.75;;;-0.53;54.73
75895;BME280;64573;50.328;15.014;2023-02-28T07:47:31;100162.09;;;-0.46;55.13
75895;BME280;64573;50.328;15.014;2023-02-28T07:49:57;100166.28;;;-0.26;54.54
75895;BME280;64573;50.328;15.014;2023-02-28T07:52:23;100159.47;;;-0.31;53.73
75895;BME280;64573;50.328;15.014;2023-02-28T07:54:50;100155.69;;;-0.58;53.59
75895;BME280;64573;50.328;15.014;2023-02-28T07:57:15;100173.47;;;-0.46;54.20
75895;BME280;64573;50.328;15.014;2023-02-28T07:59:41;100168.59;;;0.11;53.80
75895;BME280;64573;50.328;15.014;2023-02-28T08:02:06;100159.41;;;0.03;52.84
75895;BME280;64573;50.328;15.014;2023-02-28T08:04:32;100183.63;;;-0.22;53.02
75895;BME280;64573;50.328;15.014;2023-02-28T08:06:57;100164.50;;;-0.10;52.64
75895;BME280;64573;50.328;15.014;2023-02-28T08:09:23;100163.72;;;0.19;52.10
75895;BME280;64573;50.328;15.014;2023-02-28T08:11:49;100162.09;;;0.33;52.40
75895;BME280;64573;50.328;15.014;2023-02-28T08:14:14;100166.13;;;0.24;51.38
75895;BME280;64573;50.328;15.014;2023-02-28T08:16:40;100173.44;;;0.65;50.79
75895;BME280;64573;50.328;15.014;2023-02-28T08:19:05;100165.41;;;0.20;50.77
75895;BME280;64573;50.328;15.014;2023-02-28T08:21:30;100161.94;;;0.20;51.30
75895;BME280;64573;50.328;15.014;2023-02-28T08:23:56;100165.69;;;0.62;50.62
75895;BME280;64573;50.328;15.014;2023-02-28T08:26:22;100159.66;;;0.30;51.92
75895;BME280;64573;50.328;15.014;2023-02-28T08:28:47;100163.78;;;0.34;51.56
75895;BME280;64573;50.328;15.014;2023-02-28T08:31:15;100162.28;;;0.30;51.49
75895;BME280;64573;50.328;15.014;2023-02-28T08:33:41;100164.16;;;0.73;51.51
75895;BME280;64573;50.328;15.014;2023-02-28T08:36:08;100154.28;;;0.91;49.37
75895;BME280;64573;50.328;15.014;2023-02-28T08:38:34;100161.03;;;1.25;49.39
75895;BME280;64573;50.328;15.014;2023-02-28T08:41:01;100170.16;;;1.05;48.79
75895;BME280;64573;50.328;15.014;2023-02-28T08:43:28;100164.31;;;1.29;49.30
75895;BME280;64573;50.328;15.014;2023-02-28T08:45:55;100163.25;;;1.03;48.81
75895;BME280;64573;50.328;15.014;2023-02-28T08:48:22;100173.44;;;0.65;49.22
75895;BME280;64573;50.328;15.014;2023-02-28T08:53:20;100179.22;;;1.16;49.95
75895;BME280;64573;50.328;15.014;2023-02-28T08:55:45;100170.63;;;1.83;47.09
75895;BME280;64573;50.328;15.014;2023-02-28T08:58:11;100159.03;;;1.57;47.13
75895;BME280;64573;50.328;15.014;2023-02-28T09:00:36;100166.59;;;2.19;46.65
75895;BME280;64573;50.328;15.014;2023-02-28T09:03:01;100168.94;;;3.03;44.43
75895;BME280;64573;50.328;15.014;2023-02-28T09:05:27;100161.22;;;3.51;42.98
75895;BME280;64573;50.328;15.014;2023-02-28T09:07:54;100167.56;;;2.58;43.42
75895;BME280;64573;50.328;15.014;2023-02-28T09:10:19;100170.44;;;2.28;45.51
75895;BME280;64573;50.328;15.014;2023-02-28T09:12:44;100161.81;;;2.24;46.55
75895;BME280;64573;50.328;15.014;2023-02-28T09:15:12;100162.84;;;2.63;45.47
75895;BME280;64573;50.328;15.014;2023-02-28T09:17:38;100152.97;;;3.04;43.21
75895;BME280;64573;50.328;15.014;2023-02-28T09:20:04;100168.03;;;2.10;45.10
75895;BME280;64573;50.328;15.014;2023-02-28T09:22:30;100169.72;;;1.56;47.74
75895;BME280;64573;50.328;15.014;2023-02-28T09:24:55;100167.63;;;1.75;46.92
75895;BME280;64573;50.328;15.014;2023-02-28T09:27:20;100159.22;;;2.10;46.36
75895;BME280;64573;50.328;15.014;2023-02-28T09:29:46;100176.22;;;1.50;46.21
75895;BME280;64573;50.328;15.014;2023-02-28T09:32:11;100165.69;;;2.06;46.61
75895;BME280;64573;50.328;15.014;2023-02-28T09:37:02;100157.22;;;3.95;42.13
75895;BME280;64573;50.328;15.014;2023-02-28T09:39:27;100159.16;;;4.40;40.91
75895;BME280;64573;50.328;15.014;2023-02-28T09:41:55;100162.38;;;4.33;41.38
75895;BME280;64573;50.328;15.014;2023-02-28T09:44:39;100167.03;;;3.18;42.24
75895;BME280;64573;50.328;15.014;2023-02-28T09:47:19;100163.59;;;3.92;41.99
75895;BME280;64573;50.328;15.014;2023-02-28T09:49:50;100166.31;;;2.63;43.70
75895;BME280;64573;50.328;15.014;2023-02-28T09:52:21;100166.13;;;2.12;45.29
75895;BME280;64573;50.328;15.014;2023-02-28T09:54:49;100169.72;;;2.38;46.40
75895;BME280;64573;50.328;15.014;2023-02-28T09:57:36;100160.47;;;3.36;42.44
75895;BME280;64573;50.328;15.014;2023-02-28T10:00:23;100169.91;;;3.66;43.02
75895;BME280;64573;50.328;15.014;2023-02-28T10:05:50;100174.44;;;2.87;42.79
75895;BME280;64573;50.328;15.014;2023-02-28T10:08:36;100175.53;;;4.34;41.38
75895;BME280;64573;50.328;15.014;2023-02-28T10:11:07;100170.53;;;5.13;40.18
75895;BME280;64573;50.328;15.014;2023-02-28T10:14:01;100172.78;;;5.41;38.18
75895;BME280;64573;50.328;15.014;2023-02-28T10:24:32;100170.94;;;4.84;40.34
75895;BME280;64573;50.328;15.014;2023-02-28T10:27:05;100168.31;;;4.60;39.75
75895;BME280;64573;50.328;15.014;2023-02-28T10:29:36;100161.13;;;4.74;39.45
75895;BME280;64573;50.328;15.014;2023-02-28T10:32:04;100174.13;;;5.58;39.26
75895;BME280;64573;50.328;15.014;2023-02-28T10:34:29;100161.84;;;6.66;36.84
75895;BME280;64573;50.328;15.014;2023-02-28T10:36:55;100161.06;;;6.00;36.71
75895;BME280;64573;50.328;15.014;2023-02-28T10:39:41;100148.06;;;3.24;44.20
75895;BME280;64573;50.328;15.014;2023-02-28T10:42:30;100161.09;;;3.65;44.40
75895;BME280;64573;50.328;15.014;2023-02-28T10:45:14;100153.16;;;4.74;41.20
75895;BME280;64573;50.328;15.014;2023-02-28T10:58:56;100148.63;;;4.63;39.52
75895;BME280;64573;50.328;15.014;2023-02-28T11:03:58;100134.44;;;4.75;40.24
75895;BME280;64573;50.328;15.014;2023-02-28T11:09:03;100128.47;;;7.25;34.06
75895;BME280;64573;50.328;15.014;2023-02-28T11:11:31;100132.41;;;4.79;39.94
75895;BME280;64573;50.328;15.014;2023-02-28T11:14:05;100140.50;;;4.05;43.00
75895;BME280;64573;50.328;15.014;2023-02-28T11:16:36;100133.50;;;4.04;40.72
75895;BME280;64573;50.328;15.014;2023-02-28T11:19:04;100141.50;;;4.98;38.33
75895;BME280;64573;50.328;15.014;2023-02-28T11:21:36;100130.56;;;5.48;38.36
75895;BME280;64573;50.328;15.014;2023-02-28T11:26:46;100129.09;;;7.68;35.40
75895;BME280;64573;50.328;15.014;2023-02-28T11:34:24;100130.09;;;5.54;36.65
75895;BME280;64573;50.328;15.014;2023-02-28T11:36:51;100121.88;;;5.46;36.30
75895;BME280;64573;50.328;15.014;2023-02-28T11:39:18;100113.75;;;6.35;35.96
75895;BME280;64573;50.328;15.014;2023-02-28T11:50:20;100112.06;;;6.34;37.52
75895;BME280;64573;50.328;15.014;2023-02-28T11:55:27;100109.84;;;5.07;38.50
75895;BME280;64573;50.328;15.014;2023-02-28T12:03:39;100105.94;;;6.23;36.21
75895;BME280;64573;50.328;15.014;2023-02-28T12:06:09;100092.66;;;6.12;37.82
75895;BME280;64573;50.328;15.014;2023-02-28T12:19:32;100093.81;;;6.62;35.73
75895;BME280;64573;50.328;15.014;2023-02-28T12:27:09;100094.31;;;6.24;34.59
75895;BME280;64573;50.328;15.014;2023-02-28T12:29:47;100091.38;;;5.61;36.88
75895;BME280;64573;50.328;15.014;2023-02-28T12:32:27;100094.09;;;6.48;37.25
75895;BME280;64573;50.328;15.014;2023-02-28T12:35:01;100088.44;;;8.05;33.59
75895;BME280;64573;50.328;15.014;2023-02-28T12:40:04;100087.84;;;9.18;31.67
75895;BME280;64573;50.328;15.014;2023-02-28T12:42:33;100079.16;;;5.70;38.83
75895;BME280;64573;50.328;15.014;2023-02-28T12:45:05;100081.56;;;5.84;37.59
75895;BME280;64573;50.328;15.014;2023-02-28T13:10:52;100060.69;;;6.64;38.33
75895;BME280;64573;50.328;15.014;2023-02-28T13:13:26;100056.78;;;5.95;38.08
75895;BME280;64573;50.328;15.014;2023-02-28T13:18:37;100057.56;;;8.41;33.72
75895;BME280;64573;50.328;15.014;2023-02-28T13:21:06;100061.59;;;7.57;34.13
75895;BME280;64573;50.328;15.014;2023-02-28T13:26:04;100050.59;;;6.26;37.66
75895;BME280;64573;50.328;15.014;2023-02-28T13:49:18;100050.50;;;4.73;40.98
75895;BME280;64573;50.328;15.014;2023-02-28T14:03:26;100041.47;;;5.20;39.13
75895;BME280;64573;50.328;15.014;2023-02-28T14:06:28;100043.47;;;4.25;41.69
75895;BME280;64573;50.328;15.014;2023-02-28T14:11:52;100031.22;;;4.47;40.25
75895;BME280;64573;50.328;15.014;2023-02-28T14:17:08;100037.53;;;6.44;36.95
75895;BME280;64573;50.328;15.014;2023-02-28T14:19:38;100029.88;;;6.72;36.92
75895;BME280;64573;50.328;15.014;2023-02-28T14:35:58;100029.63;;;5.02;39.70
75895;BME280;64573;50.328;15.014;2023-02-28T14:43:28;100028.19;;;4.40;40.61
75895;BME280;64573;50.328;15.014;2023-02-28T14:45:59;100018.28;;;5.76;40.71
75895;BME280;64573;50.328;15.014;2023-02-28T14:48:25;100029.72;;;4.31;44.27
75895;BME280;64573;50.328;15.014;2023-02-28T14:50:54;100027.75;;;4.57;40.77
75895;BME280;64573;50.328;15.014;2023-02-28T14:53:22;100028.00;;;4.77;41.97
75895;BME280;64573;50.328;15.014;2023-02-28T14:55:49;100017.00;;;4.59;40.98
75895;BME280;64573;50.328;15.014;2023-02-28T15:05:59;100015.78;;;4.17;43.13
75895;BME280;64573;50.328;15.014;2023-02-28T15:08:25;100011.47;;;4.73;40.90
75895;BME280;64573;50.328;15.014;2023-02-28T15:13:16;100009.72;;;6.16;38.51
75895;BME280;64573;50.328;15.014;2023-02-28T15:15:44;99996.66;;;6.76;38.02
75895;BME280;64573;50.328;15.014;2023-02-28T15:36:15;100006.50;;;4.57;43.14
75895;BME280;64573;50.328;15.014;2023-02-28T15:38:42;99997.41;;;4.37;43.50
75895;BME280;64573;50.328;15.014;2023-02-28T15:43:38;100003.69;;;4.01;43.57
75895;BME280;64573;50.328;15.014;2023-02-28T15:48:38;100009.59;;;3.57;45.18
75895;BME280;64573;50.328;15.014;2023-02-28T15:51:14;100009.44;;;3.71;43.73
75895;BME280;64573;50.328;15.014;2023-02-28T16:01:32;99999.13;;;3.55;44.91
75895;BME280;64573;50.328;15.014;2023-02-28T16:16:44;100007.56;;;3.24;46.49
75895;BME280;64573;50.328;15.014;2023-02-28T16:19:10;100011.13;;;2.86;47.00
75895;BME280;64573;50.328;15.014;2023-02-28T16:24:12;100006.00;;;2.19;49.31
75895;BME280;64573;50.328;15.014;2023-02-28T16:26:39;100012.91;;;1.95;49.63
75895;BME280;64573;50.328;15.014;2023-02-28T16:34:06;100011.47;;;0.94;53.98
75895;BME280;64573;50.328;15.014;2023-02-28T16:36:31;100019.56;;;0.63;55.78
75895;BME280;64573;50.328;15.014;2023-02-28T16:38:57;100014.81;;;0.39;55.35
75895;BME280;64573;50.328;15.014;2023-02-28T16:41:24;100024.56;;;0.09;57.51
75895;BME280;64573;50.328;15.014;2023-02-28T16:43:52;100038.03;;;-0.12;58.70
75895;BME280;64573;50.328;15.014;2023-02-28T16:46:19;100031.34;;;-0.33;59.38
75895;BME280;64573;50.328;15.014;2023-02-28T16:48:46;100030.00;;;-0.56;60.19
75895;BME280;64573;50.328;15.014;2023-02-28T16:51:14;100026.06;;;-0.80;61.69
75895;BME280;64573;50.328;15.014;2023-02-28T16:53:41;100034.78;;;-0.96;64.34
75895;BME280;64573;50.328;15.014;2023-02-28T16:58:41;100037.38;;;-1.27;64.94
75895;BME280;64573;50.328;15.014;2023-02-28T17:01:07;100048.22;;;-1.33;66.48
75895;BME280;64573;50.328;15.014;2023-02-28T17:03:32;100053.88;;;-1.41;67.65